Shanghai Hongqiao International Airport
ZSSS : now visible

Airfield :











YOU CAN JOIN US ON...

 
LOGIN :

Register | Disclaimer

   EN    FR    IT 

 









Legend :    VFR   Marginal VFR   IFR   Intensive IFR   Very Intensive IFR
Visi :
Ceiling :
>= 8 km
>= 3000ft
5 to 8 km
1000 to 3000 ft
1500m to 5 km
500 to 1000 ft
800 to 1500m
200 to 500 ft
< 800m
< 200 ft
Symbols :   Thunderstorms  Fog  Heavy snow  Heavy precipitations  Wind > 20 kt







- Airport Elevation : 10 ft
- IATA code : SHA


ZSSS - Shanghai Hongqiao International

CURRENT METAR :
  • 260030Z 15003MPS CAVOK 31/26 Q1007 NOSIG

EXPIRED METARs :
  • 260000Z 17003MPS CAVOK 30/27 Q1007 NOSIG
  • 252330Z 18003MPS CAVOK 29/26 Q1007 NOSIG
  • 252300Z 18002MPS CAVOK 28/27 Q1007 NOSIG
  • 252230Z 20004MPS 9999 -SHRA FEW023TCU 28/26 Q1007 NOSIG
  • 252200Z 17003MPS 9999 FEW023TCU 29/26 Q1007 NOSIG

TAF TAF ZSSS
Valid from the 26 at 00:00 until the 27 at 00:00 UTC


251912Z 2600/2624 15004MPS 6000 BKN020 TX33/2606Z TN26/2621Z
No reported NOTAMs for that airfield.



MET'MAP, your aeronautical weather chart ! - Copyright ORBIFLY December 2007 - Disclaimer

ORBIFLY MET'MAP TEAM :

Programming & Development : Alexandra Zaïnal
Concept & Development : Baudouin d'Aumeries
Co-Development & Prog : Marc-Olivier Méhu
Technical & hardware support : Manuel Goepfert

Contact : metmap@orbifly.com




SOURCES & CREDITS :

   NOAA       Earth
Advisory